createdAt,value
2023-02-14T00:01:34.463Z,8.80
2023-02-14T00:04:02.485Z,8.80
2023-02-14T00:06:35.195Z,8.80
2023-02-14T00:09:03.919Z,8.70
2023-02-14T00:11:32.009Z,8.60
2023-02-14T00:14:19.230Z,8.50
2023-02-14T00:16:47.318Z,8.50
2023-02-14T00:19:17.187Z,8.50
2023-02-14T00:21:46.271Z,8.40
2023-02-14T00:24:16.792Z,8.40
2023-02-14T00:26:45.083Z,8.30
2023-02-14T00:29:16.583Z,8.30
2023-02-14T00:31:45.298Z,8.30
2023-02-14T00:34:13.928Z,8.30
2023-02-14T00:36:41.934Z,8.20
2023-02-14T00:39:12.164Z,8.20
2023-02-14T00:41:40.895Z,8.20
2023-02-14T00:44:10.795Z,8.20
2023-02-14T00:46:41.990Z,8.10
2023-02-14T00:49:10.448Z,8.10
2023-02-14T00:51:39.377Z,8.10
2023-02-14T00:54:07.402Z,8.10
2023-02-14T00:56:35.437Z,8.10
2023-02-14T00:59:03.519Z,8.00
2023-02-14T01:01:31.621Z,8.00
2023-02-14T01:04:01.188Z,8.00
2023-02-14T01:06:29.445Z,8.00
2023-02-14T01:08:58.172Z,7.90
2023-02-14T01:11:26.157Z,7.90
2023-02-14T01:13:57.233Z,7.90
2023-02-14T01:16:27.589Z,7.90
2023-02-14T01:18:56.827Z,7.80
2023-02-14T01:21:28.317Z,7.80
2023-02-14T01:23:59.289Z,7.80
2023-02-14T01:26:28.103Z,7.80
2023-02-14T01:28:56.398Z,7.70
2023-02-14T01:31:26.978Z,7.70
2023-02-14T01:33:58.341Z,7.70
2023-02-14T01:36:29.473Z,7.60
2023-02-14T01:38:59.463Z,7.60
2023-02-14T01:41:29.349Z,7.60
2023-02-14T01:44:01.490Z,7.60
2023-02-14T01:46:31.491Z,7.50
2023-02-14T01:49:04.332Z,7.50
2023-02-14T01:51:35.705Z,7.40
2023-02-14T01:54:05.856Z,7.40
2023-02-14T01:56:39.456Z,7.40
2023-02-14T01:59:10.444Z,7.30
2023-02-14T02:01:39.547Z,7.40
2023-02-14T02:04:11.258Z,7.40
2023-02-14T02:06:44.187Z,7.40
2023-02-14T02:09:16.398Z,7.30
2023-02-14T02:11:44.770Z,7.30
2023-02-14T02:14:16.430Z,7.30
2023-02-14T02:16:58.231Z,7.40
2023-02-14T02:20:02.523Z,7.40
2023-02-14T02:23:20.171Z,7.40
2023-02-14T02:26:13.456Z,7.30
2023-02-14T02:29:23.124Z,7.40
2023-02-14T02:32:24.546Z,7.30
2023-02-14T02:35:26.881Z,7.40
2023-02-14T02:38:08.811Z,7.40
2023-02-14T02:40:49.072Z,7.30
2023-02-14T02:43:28.963Z,7.30
2023-02-14T02:46:20.435Z,7.30
2023-02-14T02:48:55.999Z,7.20
2023-02-14T02:51:53.140Z,7.20
2023-02-14T02:54:27.609Z,7.20
2023-02-14T02:57:01.220Z,7.20
2023-02-14T02:59:31.831Z,7.20
2023-02-14T03:02:07.300Z,7.20
2023-02-14T03:04:55.068Z,7.10
2023-02-14T03:07:39.300Z,7.10
2023-02-14T03:10:14.972Z,7.20
2023-02-14T03:13:19.909Z,7.20
2023-02-14T03:16:11.767Z,7.10
2023-02-14T03:19:07.115Z,7.10
2023-02-14T03:21:47.898Z,7.10
2023-02-14T03:24:25.826Z,7.10
2023-02-14T03:27:02.800Z,7.10
2023-02-14T03:29:41.385Z,7.10
2023-02-14T03:32:16.182Z,7.10
2023-02-14T03:34:53.663Z,7.00
2023-02-14T03:37:27.613Z,7.00
2023-02-14T03:40:04.284Z,7.00
2023-02-14T03:42:37.341Z,7.00
2023-02-14T03:45:09.731Z,7.00
2023-02-14T03:47:40.224Z,6.90
2023-02-14T03:50:11.990Z,6.90
2023-02-14T03:52:41.134Z,6.90
2023-02-14T03:55:11.747Z,6.90
2023-02-14T03:57:48.146Z,6.90
2023-02-14T04:00:18.578Z,6.90
2023-02-14T04:02:50.628Z,6.80
2023-02-14T04:05:22.396Z,6.80
2023-02-14T04:07:52.734Z,6.80
2023-02-14T04:10:23.452Z,6.80
2023-02-14T04:12:51.814Z,6.80
2023-02-14T04:15:20.000Z,6.80
2023-02-14T04:18:05.736Z,6.80
2023-02-14T04:20:34.103Z,6.80
2023-02-14T04:23:03.560Z,6.80
2023-02-14T04:25:33.178Z,6.70
2023-02-14T04:28:01.181Z,6.70
2023-02-14T04:30:29.293Z,6.70
2023-02-14T04:32:57.352Z,6.70
2023-02-14T04:35:25.377Z,6.70
2023-02-14T04:37:53.363Z,6.60
2023-02-14T04:40:21.592Z,6.60
2023-02-14T04:42:50.963Z,6.60
2023-02-14T04:45:19.075Z,6.60
2023-02-14T04:47:47.361Z,6.50
2023-02-14T04:50:16.142Z,6.60
2023-02-14T04:52:44.133Z,6.50
2023-02-14T04:55:12.212Z,6.50
2023-02-14T04:57:40.175Z,6.40
2023-02-14T05:00:11.041Z,6.50
2023-02-14T05:02:39.092Z,6.50
2023-02-14T05:05:07.831Z,6.50
2023-02-14T05:07:36.014Z,6.50
2023-02-14T05:10:04.772Z,6.40
2023-02-14T05:12:33.114Z,6.40
2023-02-14T05:15:01.142Z,6.40
2023-02-14T05:17:30.481Z,6.30
2023-02-14T05:19:58.471Z,6.30
2023-02-14T05:22:26.552Z,6.30
2023-02-14T05:24:54.507Z,6.20
2023-02-14T05:27:22.460Z,6.10
2023-02-14T05:29:50.518Z,6.00
2023-02-14T05:32:18.526Z,6.00
2023-02-14T05:34:47.925Z,6.00
2023-02-14T05:37:15.956Z,6.00
2023-02-14T05:39:43.970Z,6.10
2023-02-14T05:42:11.948Z,6.10
2023-02-14T05:44:39.953Z,6.00
2023-02-14T05:47:07.933Z,6.10
2023-02-14T05:49:36.744Z,6.10
2023-02-14T05:52:06.544Z,6.10
2023-02-14T05:54:34.571Z,6.00
2023-02-14T05:57:02.561Z,6.00
2023-02-14T05:59:30.588Z,6.10
2023-02-14T06:01:58.642Z,6.10
2023-02-14T06:04:26.804Z,6.20
2023-02-14T06:06:54.863Z,6.20
2023-02-14T06:09:24.266Z,6.10
2023-02-14T06:11:54.378Z,6.10
2023-02-14T06:14:23.201Z,6.10
2023-02-14T06:16:51.457Z,6.10
2023-02-14T06:19:19.651Z,6.10
2023-02-14T06:21:47.783Z,6.00
2023-02-14T06:24:15.953Z,6.00
2023-02-14T06:26:45.314Z,6.00
2023-02-14T06:29:13.283Z,6.00
2023-02-14T06:31:41.521Z,6.00
2023-02-14T06:34:09.631Z,5.90
2023-02-14T06:36:38.072Z,5.90
2023-02-14T06:39:06.130Z,5.90
2023-02-14T06:41:34.170Z,5.90
2023-02-14T06:44:03.534Z,5.90
2023-02-14T06:46:31.646Z,5.90
2023-02-14T06:48:59.702Z,5.90
2023-02-14T06:51:27.774Z,5.90
2023-02-14T06:53:55.815Z,5.90
2023-02-14T06:56:23.991Z,5.90
2023-02-14T06:58:52.111Z,6.00
2023-02-14T07:01:21.486Z,5.90
2023-02-14T07:03:49.500Z,6.00
2023-02-14T07:06:17.540Z,6.00
2023-02-14T07:08:45.667Z,6.00
2023-02-14T07:11:13.657Z,6.00
2023-02-14T07:13:41.665Z,6.00
2023-02-14T07:16:09.790Z,6.10
2023-02-14T07:18:39.209Z,6.00
2023-02-14T07:21:07.304Z,6.10
2023-02-14T07:23:36.002Z,6.10
2023-02-14T07:26:04.090Z,6.10
2023-02-14T07:28:33.571Z,6.10
2023-02-14T07:31:02.838Z,6.20
2023-02-14T07:33:31.208Z,6.20
2023-02-14T07:36:04.811Z,6.20
2023-02-14T07:38:32.837Z,6.20
2023-02-14T07:41:01.143Z,6.20
2023-02-14T07:43:29.691Z,6.30
2023-02-14T07:45:58.052Z,6.30
2023-02-14T07:48:26.474Z,6.30
2023-02-14T07:50:56.552Z,6.40
2023-02-14T07:53:26.024Z,6.40
2023-02-14T07:55:54.165Z,6.40
2023-02-14T07:58:22.428Z,6.40
2023-02-14T08:00:51.163Z,6.50
2023-02-14T08:03:19.310Z,6.50
2023-02-14T08:05:56.971Z,6.50
2023-02-14T08:08:28.503Z,6.60
2023-02-14T08:10:56.893Z,6.60
2023-02-14T08:13:24.947Z,6.70
2023-02-14T08:16:09.569Z,6.80
2023-02-14T08:18:39.704Z,6.80
2023-02-14T08:21:09.411Z,6.90
2023-02-14T08:23:39.191Z,6.90
2023-02-14T08:26:07.655Z,7.00
2023-02-14T08:28:36.056Z,7.00
2023-02-14T08:31:05.477Z,7.10
2023-02-14T08:33:33.595Z,7.10
2023-02-14T08:36:02.581Z,7.30
2023-02-14T08:38:30.711Z,7.30
2023-02-14T08:41:05.787Z,7.40
2023-02-14T08:43:35.734Z,7.50
2023-02-14T08:46:03.938Z,7.50
2023-02-14T08:48:31.984Z,7.60
2023-02-14T08:51:00.311Z,7.60
2023-02-14T08:53:28.474Z,7.60
2023-02-14T08:55:56.476Z,7.60
2023-02-14T08:58:25.867Z,7.70
2023-02-14T09:00:55.681Z,7.70
2023-02-14T09:03:23.775Z,7.80
2023-02-14T09:05:51.859Z,7.90
2023-02-14T09:08:19.861Z,7.90
2023-02-14T09:10:47.951Z,8.00
2023-02-14T09:13:16.348Z,8.00
2023-02-14T09:15:45.792Z,8.10
2023-02-14T09:18:14.097Z,8.10
2023-02-14T09:20:44.278Z,8.10
2023-02-14T09:23:12.367Z,8.20
2023-02-14T09:25:41.105Z,8.20
2023-02-14T09:28:09.147Z,8.30
2023-02-14T09:30:37.219Z,8.40
2023-02-14T09:33:06.706Z,8.50
2023-02-14T09:35:34.747Z,8.60
2023-02-14T09:38:18.230Z,8.60
2023-02-14T09:40:47.171Z,8.60
2023-02-14T09:43:21.794Z,8.70
2023-02-14T09:45:53.921Z,8.70
2023-02-14T09:48:30.267Z,8.70
2023-02-14T09:51:01.783Z,8.80
2023-02-14T09:53:31.633Z,8.80
2023-02-14T09:56:10.154Z,8.90
2023-02-14T09:58:46.967Z,9.00
2023-02-14T10:01:21.467Z,9.00
2023-02-14T10:04:18.359Z,9.10
2023-02-14T10:06:51.429Z,9.10
2023-02-14T10:09:56.371Z,9.20
2023-02-14T10:12:28.396Z,9.30
2023-02-14T10:15:00.494Z,9.30
2023-02-14T10:17:37.415Z,9.40
2023-02-14T10:20:17.729Z,9.40
2023-02-14T10:22:51.473Z,9.40
2023-02-14T10:25:25.663Z,9.50
2023-02-14T10:27:56.644Z,9.50
2023-02-14T10:30:25.907Z,9.50
2023-02-14T10:33:04.469Z,9.60
2023-02-14T10:35:45.258Z,9.60
2023-02-14T10:38:22.818Z,9.70
2023-02-14T10:41:08.564Z,9.80
2023-02-14T10:43:46.140Z,9.80
2023-02-14T10:46:30.958Z,9.80
2023-02-14T10:49:09.325Z,9.80
2023-02-14T10:51:45.545Z,9.90
2023-02-14T10:54:21.472Z,10.10
2023-02-14T10:56:54.025Z,10.10
2023-02-14T10:59:26.290Z,10.00
2023-02-14T11:01:56.236Z,10.10
2023-02-14T11:04:26.358Z,10.20
2023-02-14T11:06:55.758Z,10.30
2023-02-14T11:09:23.956Z,10.30
2023-02-14T11:11:54.240Z,10.40
2023-02-14T11:14:30.032Z,10.50
2023-02-14T11:16:59.147Z,10.50
2023-02-14T11:19:28.760Z,10.50
2023-02-14T11:21:59.844Z,10.50
2023-02-14T11:24:30.918Z,10.50
2023-02-14T11:27:01.553Z,10.60
2023-02-14T11:29:31.984Z,10.60
2023-02-14T11:32:09.250Z,10.60
2023-02-14T11:34:40.187Z,10.70
2023-02-14T11:37:26.825Z,10.80
2023-02-14T11:39:56.647Z,10.80
2023-02-14T11:42:38.648Z,10.90
2023-02-14T11:45:08.600Z,10.90
2023-02-14T11:47:41.419Z,11.00
2023-02-14T11:50:24.662Z,11.10
2023-02-14T11:52:57.021Z,11.20
2023-02-14T11:55:30.342Z,11.50
2023-02-14T11:57:59.342Z,11.50
2023-02-14T12:00:31.102Z,11.50
2023-02-14T12:03:02.979Z,11.40
2023-02-14T12:05:33.100Z,11.40
2023-02-14T12:08:05.031Z,11.40
2023-02-14T12:10:33.869Z,11.40
2023-02-14T12:13:04.376Z,11.40
2023-02-14T12:15:36.765Z,11.40
2023-02-14T12:18:31.172Z,11.40
2023-02-14T12:21:04.178Z,11.50
2023-02-14T12:23:42.008Z,11.60
2023-02-14T12:26:18.771Z,11.60
2023-02-14T12:28:53.081Z,11.70
2023-02-14T12:31:21.320Z,11.80
2023-02-14T12:33:50.581Z,11.80
2023-02-14T12:36:36.821Z,11.90
2023-02-14T12:39:15.808Z,12.00
2023-02-14T12:41:50.257Z,12.20
2023-02-14T12:44:27.614Z,12.50
2023-02-14T12:47:16.097Z,12.60
2023-02-14T12:50:02.682Z,12.80
2023-02-14T12:52:59.085Z,13.00
2023-02-14T12:55:49.189Z,13.10
2023-02-14T12:58:27.132Z,13.10
2023-02-14T13:01:05.057Z,13.20
2023-02-14T13:04:10.679Z,13.20
2023-02-14T13:06:41.990Z,13.20
2023-02-14T13:09:23.081Z,13.20
2023-02-14T13:12:05.571Z,13.30
2023-02-14T13:14:47.627Z,13.40
2023-02-14T13:17:25.337Z,13.50
2023-02-14T13:19:58.901Z,13.60
2023-02-14T13:22:29.860Z,13.70
2023-02-14T13:25:01.014Z,13.80
2023-02-14T13:27:34.043Z,13.90
2023-02-14T13:30:06.272Z,14.00
2023-02-14T13:32:39.707Z,14.10
2023-02-14T13:35:09.429Z,14.20
2023-02-14T13:37:38.697Z,14.30
2023-02-14T13:40:16.820Z,14.40
2023-02-14T13:42:57.781Z,14.50
2023-02-14T13:45:59.505Z,14.60
2023-02-14T13:48:29.332Z,14.70
2023-02-14T13:50:59.746Z,14.70
2023-02-14T13:53:37.520Z,14.70
2023-02-14T13:56:07.689Z,14.80
2023-02-14T13:58:37.119Z,14.80
2023-02-14T14:01:30.210Z,14.80
2023-02-14T14:04:00.903Z,14.70
2023-02-14T14:06:29.532Z,14.80
2023-02-14T14:08:57.712Z,14.80
2023-02-14T14:12:01.886Z,15.00
2023-02-14T14:14:39.695Z,15.40
2023-02-14T14:17:26.061Z,16.00
2023-02-14T14:19:54.520Z,16.70
2023-02-14T14:22:23.017Z,17.10
2023-02-14T14:24:57.327Z,17.30
2023-02-14T14:27:28.652Z,17.60
2023-02-14T14:29:59.808Z,17.70
2023-02-14T14:32:30.502Z,17.40
2023-02-14T14:35:00.572Z,16.90
2023-02-14T14:37:30.798Z,15.90
2023-02-14T14:40:01.173Z,15.30
2023-02-14T14:42:31.575Z,14.90
2023-02-14T14:45:03.869Z,14.50
2023-02-14T14:47:41.493Z,14.30
2023-02-14T14:50:16.246Z,14.00
2023-02-14T14:52:48.215Z,13.80
2023-02-14T14:55:21.034Z,13.70
2023-02-14T14:57:53.895Z,13.60
2023-02-14T15:00:28.506Z,13.60
2023-02-14T15:02:59.077Z,13.50
2023-02-14T15:05:30.025Z,13.40
2023-02-14T15:07:58.806Z,13.40
2023-02-14T15:10:29.562Z,13.40
2023-02-14T15:13:17.502Z,13.30
2023-02-14T15:15:51.052Z,13.20
2023-02-14T15:18:20.864Z,13.20
2023-02-14T15:20:51.009Z,13.20
2023-02-14T15:23:22.376Z,13.20
2023-02-14T15:25:51.690Z,13.20
2023-02-14T15:28:28.503Z,13.10
2023-02-14T15:31:03.519Z,13.10
2023-02-14T15:33:33.152Z,13.00
2023-02-14T15:36:05.128Z,13.00
2023-02-14T15:38:42.329Z,13.00
2023-02-14T15:41:11.148Z,13.00
2023-02-14T15:43:40.034Z,13.10
2023-02-14T15:46:27.352Z,13.10
2023-02-14T15:48:58.330Z,13.00
2023-02-14T15:51:29.840Z,13.00
2023-02-14T15:54:00.174Z,12.90
2023-02-14T15:56:30.760Z,12.80
2023-02-14T15:59:03.892Z,12.70
2023-02-14T16:01:35.166Z,12.70
2023-02-14T16:04:06.943Z,12.70
2023-02-14T16:06:38.083Z,12.60
2023-02-14T16:09:08.809Z,12.50
2023-02-14T16:11:38.640Z,12.50
2023-02-14T16:14:30.249Z,12.40
2023-02-14T16:17:01.998Z,12.30
2023-02-14T16:19:35.300Z,12.30
2023-02-14T16:22:03.579Z,12.20
2023-02-14T16:24:31.674Z,12.20
2023-02-14T16:27:06.668Z,12.10
2023-02-14T16:29:36.215Z,12.10
2023-02-14T16:32:16.971Z,12.00
2023-02-14T16:34:47.056Z,11.90
2023-02-14T16:37:22.251Z,11.90
2023-02-14T16:39:52.119Z,12.00
2023-02-14T16:42:20.400Z,12.00
2023-02-14T16:44:50.226Z,11.90
2023-02-14T16:47:21.090Z,11.90
2023-02-14T16:49:50.640Z,11.70
2023-02-14T16:52:23.455Z,11.60
2023-02-14T16:54:51.874Z,11.50
2023-02-14T16:57:22.347Z,11.40
2023-02-14T16:59:51.214Z,11.30
2023-02-14T17:02:20.693Z,11.30
2023-02-14T17:04:48.974Z,11.20
2023-02-14T17:07:17.524Z,11.20
2023-02-14T17:09:52.875Z,11.10
2023-02-14T17:12:25.355Z,11.00
2023-02-14T17:14:56.089Z,11.00
2023-02-14T17:17:26.305Z,10.90
2023-02-14T17:19:54.555Z,10.90
2023-02-14T17:22:22.572Z,10.80
2023-02-14T17:24:50.591Z,10.80
2023-02-14T17:27:18.615Z,10.80
2023-02-14T17:29:46.600Z,10.70
2023-02-14T17:32:15.125Z,10.60
2023-02-14T17:34:44.921Z,10.50
2023-02-14T17:37:12.947Z,10.60
2023-02-14T17:39:41.111Z,10.60
2023-02-14T17:42:11.916Z,10.70
2023-02-14T17:44:40.295Z,10.60
2023-02-14T17:47:08.354Z,10.50
2023-02-14T17:49:36.373Z,10.40
2023-02-14T17:52:06.145Z,10.30
2023-02-14T17:54:37.927Z,10.20
2023-02-14T17:57:06.025Z,10.20
2023-02-14T17:59:34.347Z,10.20
2023-02-14T18:02:02.541Z,10.10
2023-02-14T18:04:30.835Z,10.00
2023-02-14T18:06:58.898Z,9.90
2023-02-14T18:09:28.377Z,9.90
2023-02-14T18:11:56.571Z,9.80
2023-02-14T18:14:24.596Z,9.80
2023-02-14T18:16:52.634Z,9.70
2023-02-14T18:19:20.742Z,9.60
2023-02-14T18:21:48.788Z,9.60
2023-02-14T18:24:16.941Z,9.50
2023-02-14T18:26:46.997Z,9.50
2023-02-14T18:29:15.458Z,9.40
2023-02-14T18:31:44.966Z,9.40
2023-02-14T18:34:13.075Z,9.40
2023-02-14T18:36:42.102Z,9.30
2023-02-14T18:39:11.734Z,9.20
2023-02-14T18:41:39.851Z,9.20
2023-02-14T18:44:09.312Z,9.20
2023-02-14T18:46:37.632Z,9.10
2023-02-14T18:49:08.292Z,9.10
2023-02-14T18:51:39.183Z,9.00
2023-02-14T18:54:07.524Z,8.90
2023-02-14T18:56:37.269Z,8.80
2023-02-14T18:59:07.430Z,8.80
2023-02-14T19:01:39.593Z,8.80
2023-02-14T19:04:11.911Z,8.80
2023-02-14T19:06:41.821Z,8.80
2023-02-14T19:09:12.318Z,8.80
2023-02-14T19:11:40.517Z,8.70
2023-02-14T19:14:10.580Z,8.60
2023-02-14T19:16:43.792Z,8.60
2023-02-14T19:19:12.095Z,8.60
2023-02-14T19:21:40.184Z,8.50
2023-02-14T19:24:08.618Z,8.40
2023-02-14T19:26:40.172Z,8.40
2023-02-14T19:29:10.702Z,8.30
2023-02-14T19:31:42.355Z,8.20
2023-02-14T19:34:17.164Z,8.10
2023-02-14T19:36:45.828Z,8.10
2023-02-14T19:39:14.690Z,8.10
2023-02-14T19:41:42.743Z,8.00
2023-02-14T19:44:13.724Z,8.10
2023-02-14T19:46:43.993Z,8.00
2023-02-14T19:49:15.098Z,8.10
2023-02-14T19:51:43.439Z,8.00
2023-02-14T19:54:12.580Z,8.00
2023-02-14T19:56:43.548Z,7.90
2023-02-14T19:59:15.205Z,7.90
2023-02-14T20:01:46.720Z,7.80
2023-02-14T20:04:17.467Z,7.80
2023-02-14T20:06:45.977Z,7.70
2023-02-14T20:09:14.721Z,7.70
2023-02-14T20:11:48.979Z,7.70
2023-02-14T20:14:18.514Z,7.60
2023-02-14T20:16:48.686Z,7.60
2023-02-14T20:19:19.599Z,7.50
2023-02-14T20:21:49.986Z,7.50
2023-02-14T20:24:20.217Z,7.40
2023-02-14T20:26:49.038Z,7.40
2023-02-14T20:29:18.705Z,7.40
2023-02-14T20:31:50.515Z,7.40
2023-02-14T20:34:18.811Z,7.30
2023-02-14T20:36:53.007Z,7.30
2023-02-14T20:39:22.351Z,7.20
2023-02-14T20:41:50.674Z,7.20
2023-02-14T20:44:21.531Z,7.20
2023-02-14T20:46:53.570Z,7.20
2023-02-14T20:49:22.934Z,7.10
2023-02-14T20:51:51.638Z,7.10
2023-02-14T20:54:20.938Z,7.00
2023-02-14T20:56:50.644Z,6.90
2023-02-14T20:59:19.364Z,6.90
2023-02-14T21:01:47.495Z,6.80
2023-02-14T21:04:17.226Z,6.80
2023-02-14T21:06:45.257Z,6.80
2023-02-14T21:09:13.218Z,6.90
2023-02-14T21:11:42.029Z,6.90
2023-02-14T21:14:10.510Z,6.90
2023-02-14T21:16:38.545Z,6.80
2023-02-14T21:19:06.637Z,6.80
2023-02-14T21:21:37.181Z,6.80
2023-02-14T21:24:08.116Z,6.80
2023-02-14T21:26:36.598Z,6.80
2023-02-14T21:29:04.950Z,6.80
2023-02-14T21:31:33.398Z,6.70
2023-02-14T21:34:02.761Z,6.70
2023-02-14T21:36:32.862Z,6.60
2023-02-14T21:39:03.683Z,6.50
2023-02-14T21:41:32.474Z,6.50
2023-02-14T21:44:02.029Z,6.60
2023-02-14T21:46:32.051Z,6.60
2023-02-14T21:49:18.534Z,6.50
2023-02-14T21:51:47.101Z,6.50
2023-02-14T21:54:17.792Z,6.50
2023-02-14T21:56:46.045Z,6.50
2023-02-14T21:59:14.693Z,6.50
2023-02-14T22:01:43.394Z,6.50
2023-02-14T22:04:12.837Z,6.50
2023-02-14T22:06:42.603Z,6.50
2023-02-14T22:09:12.891Z,6.40
2023-02-14T22:11:42.298Z,6.40
2023-02-14T22:14:10.678Z,6.30
2023-02-14T22:16:39.181Z,6.30
2023-02-14T22:19:08.213Z,6.20
2023-02-14T22:21:36.493Z,6.30
2023-02-14T22:24:04.934Z,6.50
2023-02-14T22:26:35.317Z,6.40
2023-02-14T22:29:05.473Z,6.30
2023-02-14T22:31:35.915Z,6.20
2023-02-14T22:34:04.549Z,6.20
2023-02-14T22:36:32.950Z,6.10
2023-02-14T22:39:01.087Z,6.10
2023-02-14T22:41:29.651Z,6.10
2023-02-14T22:43:58.217Z,6.00
2023-02-14T22:46:29.121Z,6.00
2023-02-14T22:48:58.154Z,5.90
2023-02-14T22:51:28.637Z,6.00
2023-02-14T22:53:58.767Z,6.00
2023-02-14T22:56:28.390Z,6.00
2023-02-14T22:58:56.971Z,5.90
2023-02-14T23:01:27.376Z,5.90
2023-02-14T23:03:56.705Z,5.90
2023-02-14T23:06:26.004Z,5.90
2023-02-14T23:08:54.366Z,5.90
2023-02-14T23:11:24.549Z,5.80
2023-02-14T23:14:10.002Z,5.80
2023-02-14T23:16:57.198Z,5.70
2023-02-14T23:19:45.372Z,5.80
2023-02-14T23:22:15.582Z,5.80
2023-02-14T23:24:43.694Z,5.70
2023-02-14T23:27:11.845Z,5.70
2023-02-14T23:29:39.888Z,5.80
2023-02-14T23:32:09.799Z,5.70
2023-02-14T23:34:40.852Z,5.70
2023-02-14T23:37:09.889Z,5.60
2023-02-14T23:39:38.859Z,5.60
2023-02-14T23:42:08.447Z,5.50
2023-02-14T23:44:36.882Z,5.50
2023-02-14T23:47:07.087Z,5.50
2023-02-14T23:49:37.942Z,5.50
2023-02-14T23:52:07.815Z,5.60
2023-02-14T23:54:36.574Z,5.60
2023-02-14T23:57:05.580Z,5.50
2023-02-14T23:59:33.921Z,5.50
